Terminal Aerodrome Forecast
Issued by NWS

Home | Current Version | Previous Version | Text Only | Print | Product List | Glossary On
Versions: 1 2 3 4 5 6 7 8 9 10 11 12 13 14 15 16 17 18 19 20 21 22
000
FTUS43 KGRR 271100
TAFLAN
TAF
KLAN 271140Z 2712/2812 32008KT P6SM -SN OVC035
     FM271400 33010KT 4SM -SN OVC030
     FM271800 33010KT 6SM -SN OVC025
     FM272300 33012KT P6SM VCSH OVC025=

USA.gov is the U.S. government's official web portal to all federal, state and local government web resources and services.